Back to Top

Language: 

My Weather Underground Personal Weather Station Historical Data with Graphs...

Delerius Weather Station Historical Data
Daily Summary for December 6, 2017 Units:  Both    English   Metric
« Previous Day
Next Day »
Daily Weekly Monthly Yearly Custom
  High: Low: Average:
Temperature: 52.0 °F /  11.1 °C 46.6 °F /  8.1 °C 49.8 °F /  9.9 °C
Dew Point: 47.3 °F /  8.5 °C 41.3 °F /  5.2 °C 43.7 °F /  6.5 °C
Humidity: 85 % 70 % 80 %
Wind Speed: 26.0 mph /  41.8 km/h - 11.3 mph /  18.2 km/h
Wind Gust: 38.0 mph /  61.2 km/h - -
Wind:- - SW
Pressure: 30.37 in /  1028.3 hPa 29.77 in /  1008 hPa -
Precipitation: 0.00 in /  0 mm    
Historical Graphs
 
 
Tabular Data for December 6, 2017
Time Temperature Dew Point Pressure Wind Wind Speed Wind Gust Humidity Rainfall Rate (Hourly) solar Conditions
00:03 46.6 °F /  8.1 °C 41.7 °F /  5.4 °C 30.37 in /  1028.3 hPa WSW 9.0 mph /  14.5 km/h 13.0 mph /  20.9 km/h 83 % 0.00 in /  0 mm 0 W/m2
00:08 46.8 °F /  8.2 °C 41.9 °F /  5.5 °C 30.37 in /  1028.3 hPa WSW 6.0 mph /  9.7 km/h 9.0 mph /  14.5 km/h 83 % 0.00 in /  0 mm 0 W/m2
00:13 46.8 °F /  8.2 °C 41.9 °F /  5.5 °C 30.37 in /  1028.3 hPa WSW 3.0 mph /  4.8 km/h 6.0 mph /  9.7 km/h 83 % 0.00 in /  0 mm 0 W/m2
00:18 46.8 °F /  8.2 °C 41.9 °F /  5.5 °C 30.36 in /  1028 hPa SW 2.0 mph /  3.2 km/h 5.0 mph /  8 km/h 83 % 0.00 in /  0 mm 0 W/m2
00:23 46.6 °F /  8.1 °C 41.7 °F /  5.4 °C 30.36 in /  1028 hPa SW 3.0 mph /  4.8 km/h 7.0 mph /  11.3 km/h 83 % 0.00 in /  0 mm 0 W/m2
00:28 46.8 °F /  8.2 °C 41.9 °F /  5.5 °C 30.36 in /  1028 hPa SW 5.0 mph /  8 km/h 8.0 mph /  12.9 km/h 83 % 0.00 in /  0 mm 0 W/m2
00:33 46.8 °F /  8.2 °C 41.9 °F /  5.5 °C 30.36 in /  1028 hPa WSW 8.0 mph /  12.9 km/h 12.0 mph /  19.3 km/h 83 % 0.00 in /  0 mm 0 W/m2
00:38 46.9 °F /  8.3 °C 42.0 °F /  5.6 °C 30.36 in /  1028 hPa WSW 4.0 mph /  6.4 km/h 6.0 mph /  9.7 km/h 83 % 0.00 in /  0 mm 0 W/m2
00:43 46.9 °F /  8.3 °C 42.0 °F /  5.6 °C 30.36 in /  1028 hPa WSW 8.0 mph /  12.9 km/h 14.0 mph /  22.5 km/h 83 % 0.00 in /  0 mm 0 W/m2
00:48 47.1 °F /  8.4 °C 42.2 °F /  5.7 °C 30.35 in /  1027.7 hPa WSW 12.0 mph /  19.3 km/h 18.0 mph /  29 km/h 83 % 0.00 in /  0 mm 0 W/m2
00:53 47.5 °F /  8.6 °C 42.6 °F /  5.9 °C 30.35 in /  1027.7 hPa WSW 9.0 mph /  14.5 km/h 18.0 mph /  29 km/h 83 % 0.00 in /  0 mm 0 W/m2
00:58 47.5 °F /  8.6 °C 42.6 °F /  5.9 °C 30.35 in /  1027.7 hPa WSW 8.0 mph /  12.9 km/h 13.0 mph /  20.9 km/h 83 % 0.00 in /  0 mm 0 W/m2
01:03 47.5 °F /  8.6 °C 42.6 °F /  5.9 °C 30.35 in /  1027.7 hPa WSW 9.0 mph /  14.5 km/h 13.0 mph /  20.9 km/h 83 % 0.00 in /  0 mm 0 W/m2
01:08 47.7 °F /  8.7 °C 42.4 °F /  5.8 °C 30.35 in /  1027.7 hPa WSW 9.0 mph /  14.5 km/h 13.0 mph /  20.9 km/h 82 % 0.00 in /  0 mm 0 W/m2
01:13 47.7 °F /  8.7 °C 42.4 °F /  5.8 °C 30.34 in /  1027.3 hPa West 7.0 mph /  11.3 km/h 12.0 mph /  19.3 km/h 82 % 0.00 in /  0 mm 0 W/m2
01:18 47.7 °F /  8.7 °C 42.4 °F /  5.8 °C 30.34 in /  1027.3 hPa West 5.0 mph /  8 km/h 10.0 mph /  16.1 km/h 82 % 0.00 in /  0 mm 0 W/m2
01:23 47.7 °F /  8.7 °C 42.4 °F /  5.8 °C 30.34 in /  1027.3 hPa West 7.0 mph /  11.3 km/h 9.0 mph /  14.5 km/h 82 % 0.00 in /  0 mm 0 W/m2
01:28 47.7 °F /  8.7 °C 42.4 °F /  5.8 °C 30.34 in /  1027.3 hPa WSW 7.0 mph /  11.3 km/h 10.0 mph /  16.1 km/h 82 % 0.00 in /  0 mm 0 W/m2
01:33 47.7 °F /  8.7 °C 42.4 °F /  5.8 °C 30.34 in /  1027.3 hPa West 8.0 mph /  12.9 km/h 14.0 mph /  22.5 km/h 82 % 0.00 in /  0 mm 0 W/m2
01:38 47.7 °F /  8.7 °C 42.4 °F /  5.8 °C 30.34 in /  1027.3 hPa West 7.0 mph /  11.3 km/h 10.0 mph /  16.1 km/h 82 % 0.00 in /  0 mm 0 W/m2
01:43 47.7 °F /  8.7 °C 42.4 °F /  5.8 °C 30.34 in /  1027.3 hPa West 8.0 mph /  12.9 km/h 13.0 mph /  20.9 km/h 82 % 0.00 in /  0 mm 0 W/m2
01:48 47.5 °F /  8.6 °C 42.3 °F /  5.7 °C 30.33 in /  1027 hPa West 9.0 mph /  14.5 km/h 13.0 mph /  20.9 km/h 82 % 0.00 in /  0 mm 0 W/m2
01:53 47.5 °F /  8.6 °C 42.3 °F /  5.7 °C 30.33 in /  1027 hPa West 7.0 mph /  11.3 km/h 11.0 mph /  17.7 km/h 82 % 0.00 in /  0 mm 0 W/m2
01:58 47.3 °F /  8.5 °C 42.1 °F /  5.6 °C 30.34 in /  1027.3 hPa West 6.0 mph /  9.7 km/h 8.0 mph /  12.9 km/h 82 % 0.00 in /  0 mm 0 W/m2
02:03 47.1 °F /  8.4 °C 41.9 °F /  5.5 °C 30.33 in /  1027 hPa West 6.0 mph /  9.7 km/h 10.0 mph /  16.1 km/h 82 % 0.00 in /  0 mm 0 W/m2
02:08 46.9 °F /  8.3 °C 42.0 °F /  5.6 °C 30.33 in /  1027 hPa West 5.0 mph /  8 km/h 8.0 mph /  12.9 km/h 83 % 0.00 in /  0 mm 0 W/m2
02:13 46.9 °F /  8.3 °C 42.4 °F /  5.8 °C 30.33 in /  1027 hPa WSW 5.0 mph /  8 km/h 9.0 mph /  14.5 km/h 84 % 0.00 in /  0 mm 0 W/m2
02:19 46.9 °F /  8.3 °C 42.4 °F /  5.8 °C 30.33 in /  1027 hPa WSW 7.0 mph /  11.3 km/h 9.0 mph /  14.5 km/h 84 % 0.00 in /  0 mm 0 W/m2
02:24 46.9 °F /  8.3 °C 42.4 °F /  5.8 °C 30.33 in /  1027 hPa WSW 6.0 mph /  9.7 km/h 9.0 mph /  14.5 km/h 84 % 0.00 in /  0 mm 0 W/m2
02:29 47.1 °F /  8.4 °C 42.5 °F /  5.8 °C 30.33 in /  1027 hPa WSW 10.0 mph /  16.1 km/h 16.0 mph /  25.7 km/h 84 % 0.00 in /  0 mm 0 W/m2
02:34 47.5 °F /  8.6 °C 42.6 °F /  5.9 °C 30.33 in /  1027 hPa WSW 11.0 mph /  17.7 km/h 20.0 mph /  32.2 km/h 83 % 0.00 in /  0 mm 0 W/m2
02:39 47.7 °F /  8.7 °C 42.8 °F /  6 °C 30.33 in /  1027 hPa West 11.0 mph /  17.7 km/h 15.0 mph /  24.1 km/h 83 % 0.00 in /  0 mm 0 W/m2
02:44 47.8 °F /  8.8 °C 42.9 °F /  6.1 °C 30.33 in /  1027 hPa West 8.0 mph /  12.9 km/h 12.0 mph /  19.3 km/h 83 % 0.00 in /  0 mm 0 W/m2
02:49 47.8 °F /  8.8 °C 42.6 °F /  5.9 °C 30.33 in /  1027 hPa WSW 7.0 mph /  11.3 km/h 12.0 mph /  19.3 km/h 82 % 0.00 in /  0 mm 0 W/m2
02:54 47.8 °F /  8.8 °C 42.6 °F /  5.9 °C 30.33 in /  1027 hPa West 7.0 mph /  11.3 km/h 12.0 mph /  19.3 km/h 82 % 0.00 in /  0 mm 0 W/m2
02:59 47.8 °F /  8.8 °C 42.6 °F /  5.9 °C 30.32 in /  1026.6 hPa West 12.0 mph /  19.3 km/h 19.0 mph /  30.6 km/h 82 % 0.00 in /  0 mm 0 W/m2
03:04 48.0 °F /  8.9 °C 42.8 °F /  6 °C 30.32 in /  1026.6 hPa West 11.0 mph /  17.7 km/h 18.0 mph /  29 km/h 82 % 0.00 in /  0 mm 0 W/m2
03:09 48.0 °F /  8.9 °C 42.5 °F /  5.8 °C 30.32 in /  1026.6 hPa West 9.0 mph /  14.5 km/h 14.0 mph /  22.5 km/h 81 % 0.00 in /  0 mm 0 W/m2
03:14 47.8 °F /  8.8 °C 42.3 °F /  5.7 °C 30.32 in /  1026.6 hPa West 11.0 mph /  17.7 km/h 16.0 mph /  25.7 km/h 81 % 0.00 in /  0 mm 0 W/m2
03:15 48.0 °F /  8.9 °C 42.5 °F /  5.8 °C 30.32 in /  1026.6 hPa West 11.0 mph /  17.7 km/h 16.0 mph /  25.7 km/h 81 % 0.00 in /  0 mm 0 W/m2
03:20 48.0 °F /  8.9 °C 42.5 °F /  5.8 °C 30.32 in /  1026.6 hPa West 10.0 mph /  16.1 km/h 18.0 mph /  29 km/h 81 % 0.00 in /  0 mm 0 W/m2
03:25 48.0 °F /  8.9 °C 42.5 °F /  5.8 °C 30.32 in /  1026.6 hPa West 10.0 mph /  16.1 km/h 18.0 mph /  29 km/h 81 % 0.00 in /  0 mm 0 W/m2
03:30 48.2 °F /  9 °C 42.6 °F /  5.9 °C 30.32 in /  1026.6 hPa West 9.0 mph /  14.5 km/h 16.0 mph /  25.7 km/h 81 % 0.00 in /  0 mm 0 W/m2
03:35 48.4 °F /  9.1 °C 42.5 °F /  5.8 °C 30.32 in /  1026.6 hPa West 10.0 mph /  16.1 km/h 15.0 mph /  24.1 km/h 80 % 0.00 in /  0 mm 0 W/m2
03:40 48.4 °F /  9.1 °C 42.5 °F /  5.8 °C 30.32 in /  1026.6 hPa WNW 12.0 mph /  19.3 km/h 21.0 mph /  33.8 km/h 80 % 0.00 in /  0 mm 0 W/m2
03:45 48.4 °F /  9.1 °C 42.5 °F /  5.8 °C 30.31 in /  1026.3 hPa WSW 9.0 mph /  14.5 km/h 15.0 mph /  24.1 km/h 80 % 0.00 in /  0 mm 0 W/m2
03:55 48.4 °F /  9.1 °C 42.5 °F /  5.8 °C 30.31 in /  1026.3 hPa West 9.0 mph /  14.5 km/h 15.0 mph /  24.1 km/h 80 % 0.00 in /  0 mm 0 W/m2
04:00 48.4 °F /  9.1 °C 42.5 °F /  5.8 °C 30.31 in /  1026.3 hPa West 8.0 mph /  12.9 km/h 14.0 mph /  22.5 km/h 80 % 0.00 in /  0 mm 0 W/m2
04:05 48.4 °F /  9.1 °C 42.5 °F /  5.8 °C 30.31 in /  1026.3 hPa West 8.0 mph /  12.9 km/h 15.0 mph /  24.1 km/h 80 % 0.00 in /  0 mm 0 W/m2
04:10 48.4 °F /  9.1 °C 42.5 °F /  5.8 °C 30.30 in /  1026 hPa West 12.0 mph /  19.3 km/h 20.0 mph /  32.2 km/h 80 % 0.00 in /  0 mm 0 W/m2
04:15 48.4 °F /  9.1 °C 42.2 °F /  5.7 °C 30.31 in /  1026.3 hPa West 8.0 mph /  12.9 km/h 11.0 mph /  17.7 km/h 79 % 0.00 in /  0 mm 0 W/m2
04:20 48.4 °F /  9.1 °C 42.2 °F /  5.7 °C 30.31 in /  1026.3 hPa West 7.0 mph /  11.3 km/h 13.0 mph /  20.9 km/h 79 % 0.00 in /  0 mm 0 W/m2
04:25 48.4 °F /  9.1 °C 42.2 °F /  5.7 °C 30.30 in /  1026 hPa West 9.0 mph /  14.5 km/h 14.0 mph /  22.5 km/h 79 % 0.00 in /  0 mm 0 W/m2
04:30 48.4 °F /  9.1 °C 42.2 °F /  5.7 °C 30.30 in /  1026 hPa WSW 7.0 mph /  11.3 km/h 14.0 mph /  22.5 km/h 79 % 0.00 in /  0 mm 0 W/m2
04:31 48.4 °F /  9.1 °C 42.2 °F /  5.7 °C 30.30 in /  1026 hPa WSW 8.0 mph /  12.9 km/h 14.0 mph /  22.5 km/h 79 % 0.00 in /  0 mm 0 W/m2
04:36 48.6 °F /  9.2 °C 42.0 °F /  5.6 °C 30.30 in /  1026 hPa WSW 10.0 mph /  16.1 km/h 14.0 mph /  22.5 km/h 78 % 0.00 in /  0 mm 0 W/m2
04:41 48.7 °F /  9.3 °C 42.2 °F /  5.7 °C 30.29 in /  1025.6 hPa West 10.0 mph /  16.1 km/h 16.0 mph /  25.7 km/h 78 % 0.00 in /  0 mm 0 W/m2
04:46 48.7 °F /  9.3 °C 41.8 °F /  5.4 °C 30.29 in /  1025.6 hPa WSW 10.0 mph /  16.1 km/h 13.0 mph /  20.9 km/h 77 % 0.00 in /  0 mm 0 W/m2
04:51 48.7 °F /  9.3 °C 41.8 °F /  5.4 °C 30.29 in /  1025.6 hPa WSW 9.0 mph /  14.5 km/h 20.0 mph /  32.2 km/h 77 % 0.00 in /  0 mm 0 W/m2
04:56 48.7 °F /  9.3 °C 41.8 °F /  5.4 °C 30.29 in /  1025.6 hPa West 8.0 mph /  12.9 km/h 12.0 mph /  19.3 km/h 77 % 0.00 in /  0 mm 0 W/m2
05:01 48.7 °F /  9.3 °C 41.8 °F /  5.4 °C 30.28 in /  1025.3 hPa WSW 6.0 mph /  9.7 km/h 13.0 mph /  20.9 km/h 77 % 0.00 in /  0 mm 0 W/m2
05:06 48.6 °F /  9.2 °C 41.7 °F /  5.4 °C 30.28 in /  1025.3 hPa WSW 5.0 mph /  8 km/h 9.0 mph /  14.5 km/h 77 % 0.00 in /  0 mm 0 W/m2
05:11 48.4 °F /  9.1 °C 41.5 °F /  5.3 °C 30.28 in /  1025.3 hPa WSW 5.0 mph /  8 km/h 6.0 mph /  9.7 km/h 77 % 0.00 in /  0 mm 0 W/m2
05:16 48.4 °F /  9.1 °C 41.5 °F /  5.3 °C 30.28 in /  1025.3 hPa WSW 4.0 mph /  6.4 km/h 7.0 mph /  11.3 km/h 77 % 0.00 in /  0 mm 0 W/m2
05:21 48.2 °F /  9 °C 41.3 °F /  5.2 °C 30.28 in /  1025.3 hPa WSW 6.0 mph /  9.7 km/h 11.0 mph /  17.7 km/h 77 % 0.00 in /  0 mm 0 W/m2
05:26 48.4 °F /  9.1 °C 41.8 °F /  5.4 °C 30.27 in /  1024.9 hPa WSW 10.0 mph /  16.1 km/h 14.0 mph /  22.5 km/h 78 % 0.00 in /  0 mm 0 W/m2
05:31 48.7 °F /  9.3 °C 42.2 °F /  5.7 °C 30.27 in /  1024.9 hPa WSW 10.0 mph /  16.1 km/h 19.0 mph /  30.6 km/h 78 % 0.00 in /  0 mm 0 W/m2
05:36 48.9 °F /  9.4 °C 42.4 °F /  5.8 °C 30.27 in /  1024.9 hPa West 13.0 mph /  20.9 km/h 20.0 mph /  32.2 km/h 78 % 0.00 in /  0 mm 0 W/m2
05:41 49.3 °F /  9.6 °C 42.7 °F /  5.9 °C 30.27 in /  1024.9 hPa WSW 14.0 mph /  22.5 km/h 19.0 mph /  30.6 km/h 78 % 0.00 in /  0 mm 0 W/m2
05:46 49.3 °F /  9.6 °C 42.7 °F /  5.9 °C 30.27 in /  1024.9 hPa WSW 11.0 mph /  17.7 km/h 16.0 mph /  25.7 km/h 78 % 0.00 in /  0 mm 0 W/m2
05:51 49.3 °F /  9.6 °C 42.7 °F /  5.9 °C 30.27 in /  1024.9 hPa WSW 8.0 mph /  12.9 km/h 15.0 mph /  24.1 km/h 78 % 0.00 in /  0 mm 0 W/m2
05:56 49.3 °F /  9.6 °C 42.7 °F /  5.9 °C 30.27 in /  1024.9 hPa WSW 9.0 mph /  14.5 km/h 14.0 mph /  22.5 km/h 78 % 0.00 in /  0 mm 0 W/m2
06:01 48.9 °F /  9.4 °C 42.7 °F /  5.9 °C 30.27 in /  1024.9 hPa WSW 11.0 mph /  17.7 km/h 18.0 mph /  29 km/h 79 % 0.00 in /  0 mm 0 W/m2
06:06 48.9 °F /  9.4 °C 43.0 °F /  6.1 °C 30.27 in /  1024.9 hPa WSW 11.0 mph /  17.7 km/h 20.0 mph /  32.2 km/h 80 % 0.00 in /  0 mm 0 W/m2
06:11 48.6 °F /  9.2 °C 42.7 °F /  5.9 °C 30.27 in /  1024.9 hPa WSW 9.0 mph /  14.5 km/h 16.0 mph /  25.7 km/h 80 % 0.00 in /  0 mm 0 W/m2
06:16 48.4 °F /  9.1 °C 42.8 °F /  6 °C 30.26 in /  1024.6 hPa WSW 8.0 mph /  12.9 km/h 13.0 mph /  20.9 km/h 81 % 0.00 in /  0 mm 0 W/m2
06:21 48.4 °F /  9.1 °C 42.8 °F /  6 °C 30.26 in /  1024.6 hPa SW 8.0 mph /  12.9 km/h 13.0 mph /  20.9 km/h 81 % 0.00 in /  0 mm 0 W/m2
06:26 48.2 °F /  9 °C 42.6 °F /  5.9 °C 30.26 in /  1024.6 hPa WSW 8.0 mph /  12.9 km/h 12.0 mph /  19.3 km/h 81 % 0.00 in /  0 mm 0 W/m2
06:31 48.2 °F /  9 °C 42.6 °F /  5.9 °C 30.25 in /  1024.3 hPa WSW 9.0 mph /  14.5 km/h 14.0 mph /  22.5 km/h 81 % 0.00 in /  0 mm 0 W/m2
06:36 48.4 °F /  9.1 °C 42.8 °F /  6 °C 30.25 in /  1024.3 hPa WSW 10.0 mph /  16.1 km/h 15.0 mph /  24.1 km/h 81 % 0.00 in /  0 mm 0 W/m2
06:41 48.4 °F /  9.1 °C 42.5 °F /  5.8 °C 30.25 in /  1024.3 hPa WSW 9.0 mph /  14.5 km/h 13.0 mph /  20.9 km/h 80 % 0.00 in /  0 mm 0 W/m2
06:46 48.4 °F /  9.1 °C 42.5 °F /  5.8 °C 30.25 in /  1024.3 hPa WSW 8.0 mph /  12.9 km/h 12.0 mph /  19.3 km/h 80 % 0.00 in /  0 mm 0 W/m2
06:51 48.4 °F /  9.1 °C 42.5 °F /  5.8 °C 30.25 in /  1024.3 hPa WSW 11.0 mph /  17.7 km/h 18.0 mph /  29 km/h 80 % 0.00 in /  0 mm 0 W/m2
06:56 48.7 °F /  9.3 °C 42.8 °F /  6 °C 30.25 in /  1024.3 hPa WSW 9.0 mph /  14.5 km/h 19.0 mph /  30.6 km/h 80 % 0.00 in /  0 mm 0 W/m2
07:01 48.7 °F /  9.3 °C 42.5 °F /  5.8 °C 30.25 in /  1024.3 hPa WSW 9.0 mph /  14.5 km/h 15.0 mph /  24.1 km/h 79 % 0.00 in /  0 mm 0 W/m2
07:06 48.9 °F /  9.4 °C 42.7 °F /  5.9 °C 30.25 in /  1024.3 hPa WSW 11.0 mph /  17.7 km/h 20.0 mph /  32.2 km/h 79 % 0.00 in /  0 mm 0 W/m2
07:11 49.1 °F /  9.5 °C 42.9 °F /  6.1 °C 30.24 in /  1023.9 hPa WSW 11.0 mph /  17.7 km/h 16.0 mph /  25.7 km/h 79 % 0.00 in /  0 mm 0 W/m2
07:16 49.1 °F /  9.5 °C 42.9 °F /  6.1 °C 30.24 in /  1023.9 hPa West 12.0 mph /  19.3 km/h 18.0 mph /  29 km/h 79 % 0.00 in /  0 mm 0 W/m2
07:21 49.1 °F /  9.5 °C 42.9 °F /  6.1 °C 30.24 in /  1023.9 hPa WSW 9.0 mph /  14.5 km/h 13.0 mph /  20.9 km/h 79 % 0.00 in /  0 mm 0 W/m2
07:26 49.1 °F /  9.5 °C 42.9 °F /  6.1 °C 30.24 in /  1023.9 hPa WSW 11.0 mph /  17.7 km/h 16.0 mph /  25.7 km/h 79 % 0.00 in /  0 mm 0 W/m2
07:31 49.3 °F /  9.6 °C 42.7 °F /  5.9 °C 30.24 in /  1023.9 hPa WSW 10.0 mph /  16.1 km/h 15.0 mph /  24.1 km/h 78 % 0.00 in /  0 mm 0 W/m2
07:37 49.3 °F /  9.6 °C 42.4 °F /  5.8 °C 30.23 in /  1023.6 hPa WSW 10.0 mph /  16.1 km/h 15.0 mph /  24.1 km/h 77 % 0.00 in /  0 mm 0 W/m2
07:42 49.5 °F /  9.7 °C 42.2 °F /  5.7 °C 30.23 in /  1023.6 hPa WSW 10.0 mph /  16.1 km/h 18.0 mph /  29 km/h 76 % 0.00 in /  0 mm 0 W/m2
07:47 49.6 °F /  9.8 °C 42.0 °F /  5.6 °C 30.23 in /  1023.6 hPa WSW 13.0 mph /  20.9 km/h 20.0 mph /  32.2 km/h 75 % 0.00 in /  0 mm 0 W/m2
07:52 49.8 °F /  9.9 °C 42.2 °F /  5.7 °C 30.24 in /  1023.9 hPa SW 10.0 mph /  16.1 km/h 14.0 mph /  22.5 km/h 75 % 0.00 in /  0 mm 5 W/m2
07:57 50.0 °F /  10 °C 42.0 °F /  5.6 °C 30.24 in /  1023.9 hPa WSW 13.0 mph /  20.9 km/h 24.0 mph /  38.6 km/h 74 % 0.00 in /  0 mm 5 W/m2
08:02 50.2 °F /  10.1 °C 41.9 °F /  5.5 °C 30.24 in /  1023.9 hPa WSW 14.0 mph /  22.5 km/h 28.0 mph /  45.1 km/h 73 % 0.00 in /  0 mm 5 W/m2
08:07 50.4 °F /  10.2 °C 42.4 °F /  5.8 °C 30.24 in /  1023.9 hPa SW 15.0 mph /  24.1 km/h 24.0 mph /  38.6 km/h 74 % 0.00 in /  0 mm 5 W/m2
08:12 50.2 °F /  10.1 °C 42.2 °F /  5.7 °C 30.24 in /  1023.9 hPa SW 14.0 mph /  22.5 km/h 21.0 mph /  33.8 km/h 74 % 0.00 in /  0 mm 9 W/m2
08:17 50.2 °F /  10.1 °C 42.2 °F /  5.7 °C 30.23 in /  1023.6 hPa SW 15.0 mph /  24.1 km/h 23.0 mph /  37 km/h 74 % 0.00 in /  0 mm 14 W/m2
08:22 50.2 °F /  10.1 °C 42.6 °F /  5.9 °C 30.23 in /  1023.6 hPa WSW 13.0 mph /  20.9 km/h 21.0 mph /  33.8 km/h 75 % 0.00 in /  0 mm 18 W/m2
08:27 50.2 °F /  10.1 °C 42.2 °F /  5.7 °C 30.23 in /  1023.6 hPa WSW 15.0 mph /  24.1 km/h 23.0 mph /  37 km/h 74 % 0.00 in /  0 mm 25 W/m2
08:32 50.4 °F /  10.2 °C 42.4 °F /  5.8 °C 30.23 in /  1023.6 hPa WSW 12.0 mph /  19.3 km/h 16.0 mph /  25.7 km/h 74 % 0.00 in /  0 mm 30 W/m2
08:37 50.4 °F /  10.2 °C 42.4 °F /  5.8 °C 30.22 in /  1023.2 hPa SW 12.0 mph /  19.3 km/h 16.0 mph /  25.7 km/h 74 % 0.00 in /  0 mm 30 W/m2
08:42 50.4 °F /  10.2 °C 42.4 °F /  5.8 °C 30.22 in /  1023.2 hPa SW 9.0 mph /  14.5 km/h 15.0 mph /  24.1 km/h 74 % 0.00 in /  0 mm 32 W/m2
08:47 50.4 °F /  10.2 °C 42.4 °F /  5.8 °C 30.22 in /  1023.2 hPa SW 10.0 mph /  16.1 km/h 14.0 mph /  22.5 km/h 74 % 0.00 in /  0 mm 35 W/m2
08:52 50.2 °F /  10.1 °C 42.2 °F /  5.7 °C 30.23 in /  1023.6 hPa WSW 9.0 mph /  14.5 km/h 18.0 mph /  29 km/h 74 % 0.00 in /  0 mm 51 W/m2
08:57 50.4 °F /  10.2 °C 42.4 °F /  5.8 °C 30.22 in /  1023.2 hPa SW 9.0 mph /  14.5 km/h 12.0 mph /  19.3 km/h 74 % 0.00 in /  0 mm 58 W/m2
09:02 50.5 °F /  10.3 °C 42.6 °F /  5.9 °C 30.22 in /  1023.2 hPa SW 10.0 mph /  16.1 km/h 14.0 mph /  22.5 km/h 74 % 0.00 in /  0 mm 47 W/m2
09:07 50.7 °F /  10.4 °C 42.4 °F /  5.8 °C 30.22 in /  1023.2 hPa SW 6.0 mph /  9.7 km/h 13.0 mph /  20.9 km/h 73 % 0.00 in /  0 mm 35 W/m2
09:12 50.7 °F /  10.4 °C 42.4 °F /  5.8 °C 30.22 in /  1023.2 hPa WSW 8.0 mph /  12.9 km/h 13.0 mph /  20.9 km/h 73 % 0.00 in /  0 mm 35 W/m2
09:17 51.1 °F /  10.6 °C 42.4 °F /  5.8 °C 30.22 in /  1023.2 hPa SW 11.0 mph /  17.7 km/h 21.0 mph /  33.8 km/h 72 % 0.00 in /  0 mm 84 W/m2
09:22 51.3 °F /  10.7 °C 42.2 °F /  5.7 °C 30.22 in /  1023.2 hPa SW 10.0 mph /  16.1 km/h 21.0 mph /  33.8 km/h 71 % 0.00 in /  0 mm 113 W/m2
09:27 51.4 °F /  10.8 °C 42.3 °F /  5.7 °C 30.22 in /  1023.2 hPa WSW 7.0 mph /  11.3 km/h 14.0 mph /  22.5 km/h 71 % 0.00 in /  0 mm 123 W/m2
09:32 51.4 °F /  10.8 °C 42.0 °F /  5.6 °C 30.22 in /  1023.2 hPa SW 8.0 mph /  12.9 km/h 12.0 mph /  19.3 km/h 70 % 0.00 in /  0 mm 37 W/m2
09:37 51.4 °F /  10.8 °C 42.3 °F /  5.7 °C 30.21 in /  1022.9 hPa SW 8.0 mph /  12.9 km/h 12.0 mph /  19.3 km/h 71 % 0.00 in /  0 mm 39 W/m2
09:42 51.4 °F /  10.8 °C 42.3 °F /  5.7 °C 30.21 in /  1022.9 hPa SSW 10.0 mph /  16.1 km/h 16.0 mph /  25.7 km/h 71 % 0.00 in /  0 mm 39 W/m2
09:47 51.1 °F /  10.6 °C 42.4 °F /  5.8 °C 30.22 in /  1023.2 hPa SW 9.0 mph /  14.5 km/h 13.0 mph /  20.9 km/h 72 % 0.00 in /  0 mm 44 W/m2
09:52 51.1 °F /  10.6 °C 42.7 °F /  5.9 °C 30.22 in /  1023.2 hPa SW 9.0 mph /  14.5 km/h 15.0 mph /  24.1 km/h 73 % 0.00 in /  0 mm 49 W/m2
09:57 50.9 °F /  10.5 °C 42.9 °F /  6.1 °C 30.21 in /  1022.9 hPa SW 8.0 mph /  12.9 km/h 13.0 mph /  20.9 km/h 74 % 0.00 in /  0 mm 56 W/m2
10:02 50.7 °F /  10.4 °C 43.1 °F /  6.2 °C 30.22 in /  1023.2 hPa SW 8.0 mph /  12.9 km/h 13.0 mph /  20.9 km/h 75 % 0.00 in /  0 mm 49 W/m2
10:07 50.7 °F /  10.4 °C 43.1 °F /  6.2 °C 30.21 in /  1022.9 hPa SW 8.0 mph /  12.9 km/h 10.0 mph /  16.1 km/h 75 % 0.00 in /  0 mm 44 W/m2
10:12 50.5 °F /  10.3 °C 43.3 °F /  6.3 °C 30.21 in /  1022.9 hPa SW 7.0 mph /  11.3 km/h 10.0 mph /  16.1 km/h 76 % 0.00 in /  0 mm 35 W/m2
10:17 50.5 °F /  10.3 °C 43.6 °F /  6.4 °C 30.21 in /  1022.9 hPa SSW 7.0 mph /  11.3 km/h 10.0 mph /  16.1 km/h 77 % 0.00 in /  0 mm 32 W/m2
10:22 50.5 °F /  10.3 °C 43.6 °F /  6.4 °C 30.21 in /  1022.9 hPa SW 8.0 mph /  12.9 km/h 15.0 mph /  24.1 km/h 77 % 0.00 in /  0 mm 42 W/m2
10:27 50.5 °F /  10.3 °C 43.9 °F /  6.6 °C 30.21 in /  1022.9 hPa SW 9.0 mph /  14.5 km/h 16.0 mph /  25.7 km/h 78 % 0.00 in /  0 mm 33 W/m2
10:32 50.5 °F /  10.3 °C 43.9 °F /  6.6 °C 30.21 in /  1022.9 hPa SW 5.0 mph /  8 km/h 8.0 mph /  12.9 km/h 78 % 0.00 in /  0 mm 32 W/m2
10:37 50.5 °F /  10.3 °C 43.9 °F /  6.6 °C 30.21 in /  1022.9 hPa SW 3.0 mph /  4.8 km/h 6.0 mph /  9.7 km/h 78 % 0.00 in /  0 mm 37 W/m2
10:42 50.5 °F /  10.3 °C 43.9 °F /  6.6 °C 30.21 in /  1022.9 hPa WSW 6.0 mph /  9.7 km/h 9.0 mph /  14.5 km/h 78 % 0.00 in /  0 mm 33 W/m2
10:47 50.5 °F /  10.3 °C 43.9 °F /  6.6 °C 30.20 in /  1022.6 hPa SW 7.0 mph /  11.3 km/h 12.0 mph /  19.3 km/h 78 % 0.00 in /  0 mm 33 W/m2
10:52 50.7 °F /  10.4 °C 44.1 °F /  6.7 °C 30.20 in /  1022.6 hPa SSW 10.0 mph /  16.1 km/h 14.0 mph /  22.5 km/h 78 % 0.00 in /  0 mm 49 W/m2
10:57 50.7 °F /  10.4 °C 44.4 °F /  6.9 °C 30.20 in /  1022.6 hPa SSW 7.0 mph /  11.3 km/h 11.0 mph /  17.7 km/h 79 % 0.00 in /  0 mm 72 W/m2
11:03 50.7 °F /  10.4 °C 44.4 °F /  6.9 °C 30.20 in /  1022.6 hPa SW 6.0 mph /  9.7 km/h 10.0 mph /  16.1 km/h 79 % 0.00 in /  0 mm 77 W/m2
11:08 50.7 °F /  10.4 °C 44.1 °F /  6.7 °C 30.19 in /  1022.2 hPa SSW 7.0 mph /  11.3 km/h 10.0 mph /  16.1 km/h 78 % 0.00 in /  0 mm 86 W/m2
11:13 50.9 °F /  10.5 °C 44.3 °F /  6.8 °C 30.19 in /  1022.2 hPa SSW 8.0 mph /  12.9 km/h 13.0 mph /  20.9 km/h 78 % 0.00 in /  0 mm 74 W/m2
11:18 50.9 °F /  10.5 °C 44.3 °F /  6.8 °C 30.19 in /  1022.2 hPa SSW 7.0 mph /  11.3 km/h 10.0 mph /  16.1 km/h 78 % 0.00 in /  0 mm 88 W/m2
11:23 51.1 °F /  10.6 °C 44.5 °F /  6.9 °C 30.19 in /  1022.2 hPa SSW 9.0 mph /  14.5 km/h 16.0 mph /  25.7 km/h 78 % 0.00 in /  0 mm 91 W/m2
11:28 51.1 °F /  10.6 °C 44.1 °F /  6.7 °C 30.18 in /  1021.9 hPa SSW 8.0 mph /  12.9 km/h 12.0 mph /  19.3 km/h 77 % 0.00 in /  0 mm 83 W/m2
11:33 51.1 °F /  10.6 °C 44.1 °F /  6.7 °C 30.18 in /  1021.9 hPa SSW 8.0 mph /  12.9 km/h 12.0 mph /  19.3 km/h 77 % 0.00 in /  0 mm 72 W/m2
11:38 51.1 °F /  10.6 °C 44.1 °F /  6.7 °C 30.18 in /  1021.9 hPa South 7.0 mph /  11.3 km/h 13.0 mph /  20.9 km/h 77 % 0.00 in /  0 mm 83 W/m2
11:43 51.1 °F /  10.6 °C 43.8 °F /  6.6 °C 30.17 in /  1021.6 hPa SSW 6.0 mph /  9.7 km/h 12.0 mph /  19.3 km/h 76 % 0.00 in /  0 mm 65 W/m2
11:48 51.1 °F /  10.6 °C 43.4 °F /  6.3 °C 30.17 in /  1021.6 hPa SSW 8.0 mph /  12.9 km/h 15.0 mph /  24.1 km/h 75 % 0.00 in /  0 mm 63 W/m2
11:53 51.3 °F /  10.7 °C 43.6 °F /  6.4 °C 30.16 in /  1021.2 hPa SW 8.0 mph /  12.9 km/h 14.0 mph /  22.5 km/h 75 % 0.00 in /  0 mm 62 W/m2
11:58 51.3 °F /  10.7 °C 43.3 °F /  6.3 °C 30.16 in /  1021.2 hPa SW 8.0 mph /  12.9 km/h 12.0 mph /  19.3 km/h 74 % 0.00 in /  0 mm 67 W/m2
12:03 51.3 °F /  10.7 °C 43.3 °F /  6.3 °C 30.16 in /  1021.2 hPa SW 8.0 mph /  12.9 km/h 13.0 mph /  20.9 km/h 74 % 0.00 in /  0 mm 88 W/m2
12:07 51.4 °F /  10.8 °C 43.4 °F /  6.3 °C 30.16 in /  1021.2 hPa SW 8.0 mph /  12.9 km/h 12.0 mph /  19.3 km/h 74 % 0.00 in /  0 mm 83 W/m2
12:12 51.4 °F /  10.8 °C 43.1 °F /  6.2 °C 30.16 in /  1021.2 hPa SSW 11.0 mph /  17.7 km/h 16.0 mph /  25.7 km/h 73 % 0.00 in /  0 mm 93 W/m2
12:17 51.6 °F /  10.9 °C 43.6 °F /  6.4 °C 30.16 in /  1021.2 hPa SSW 7.0 mph /  11.3 km/h 11.0 mph /  17.7 km/h 74 % 0.00 in /  0 mm 142 W/m2
12:22 51.6 °F /  10.9 °C 43.6 °F /  6.4 °C 30.15 in /  1020.9 hPa SW 7.0 mph /  11.3 km/h 11.0 mph /  17.7 km/h 74 % 0.00 in /  0 mm 104 W/m2
12:27 51.6 °F /  10.9 °C 43.6 °F /  6.4 °C 30.15 in /  1020.9 hPa SW 6.0 mph /  9.7 km/h 10.0 mph /  16.1 km/h 74 % 0.00 in /  0 mm 98 W/m2
12:32 51.6 °F /  10.9 °C 44.0 °F /  6.7 °C 30.15 in /  1020.9 hPa SSW 10.0 mph /  16.1 km/h 14.0 mph /  22.5 km/h 75 % 0.00 in /  0 mm 91 W/m2
12:37 51.4 °F /  10.8 °C 44.1 °F /  6.7 °C 30.15 in /  1020.9 hPa SSW 10.0 mph /  16.1 km/h 14.0 mph /  22.5 km/h 76 % 0.00 in /  0 mm 77 W/m2
12:42 51.3 °F /  10.7 °C 44.0 °F /  6.7 °C 30.14 in /  1020.5 hPa SSW 9.0 mph /  14.5 km/h 24.0 mph /  38.6 km/h 76 % 0.00 in /  0 mm 79 W/m2
12:47 51.3 °F /  10.7 °C 44.0 °F /  6.7 °C 30.14 in /  1020.5 hPa SW 8.0 mph /  12.9 km/h 15.0 mph /  24.1 km/h 76 % 0.00 in /  0 mm 69 W/m2
12:52 51.3 °F /  10.7 °C 44.0 °F /  6.7 °C 30.14 in /  1020.5 hPa SW 10.0 mph /  16.1 km/h 15.0 mph /  24.1 km/h 76 % 0.00 in /  0 mm 76 W/m2
12:57 51.3 °F /  10.7 °C 44.3 °F /  6.8 °C 30.13 in /  1020.2 hPa SSW 7.0 mph /  11.3 km/h 11.0 mph /  17.7 km/h 77 % 0.00 in /  0 mm 86 W/m2
13:02 51.3 °F /  10.7 °C 44.3 °F /  6.8 °C 30.13 in /  1020.2 hPa SW 10.0 mph /  16.1 km/h 16.0 mph /  25.7 km/h 77 % 0.00 in /  0 mm 69 W/m2
13:07 51.3 °F /  10.7 °C 44.3 °F /  6.8 °C 30.13 in /  1020.2 hPa SW 9.0 mph /  14.5 km/h 12.0 mph /  19.3 km/h 77 % 0.00 in /  0 mm 67 W/m2
13:12 51.4 °F /  10.8 °C 44.5 °F /  6.9 °C 30.13 in /  1020.2 hPa SSW 11.0 mph /  17.7 km/h 19.0 mph /  30.6 km/h 77 % 0.00 in /  0 mm 104 W/m2
13:17 51.4 °F /  10.8 °C 44.5 °F /  6.9 °C 30.12 in /  1019.9 hPa SW 12.0 mph /  19.3 km/h 18.0 mph /  29 km/h 77 % 0.00 in /  0 mm 88 W/m2
13:22 51.4 °F /  10.8 °C 44.5 °F /  6.9 °C 30.12 in /  1019.9 hPa SSW 10.0 mph /  16.1 km/h 15.0 mph /  24.1 km/h 77 % 0.00 in /  0 mm 109 W/m2
13:27 51.6 °F /  10.9 °C 44.6 °F /  7 °C 30.11 in /  1019.5 hPa SSW 8.0 mph /  12.9 km/h 18.0 mph /  29 km/h 77 % 0.00 in /  0 mm 86 W/m2
13:33 51.4 °F /  10.8 °C 44.5 °F /  6.9 °C 30.11 in /  1019.5 hPa SSW 13.0 mph /  20.9 km/h 19.0 mph /  30.6 km/h 77 % 0.00 in /  0 mm 81 W/m2
13:38 51.4 °F /  10.8 °C 44.5 °F /  6.9 °C 30.11 in /  1019.5 hPa SSW 12.0 mph /  19.3 km/h 20.0 mph /  32.2 km/h 77 % 0.00 in /  0 mm 79 W/m2
13:43 51.3 °F /  10.7 °C 44.3 °F /  6.8 °C 30.10 in /  1019.2 hPa SSW 12.0 mph /  19.3 km/h 19.0 mph /  30.6 km/h 77 % 0.00 in /  0 mm 79 W/m2
13:48 51.3 °F /  10.7 °C 44.3 °F /  6.8 °C 30.10 in /  1019.2 hPa SSW 10.0 mph /  16.1 km/h 14.0 mph /  22.5 km/h 77 % 0.00 in /  0 mm 67 W/m2
13:53 51.1 °F /  10.6 °C 44.1 °F /  6.7 °C 30.10 in /  1019.2 hPa SW 14.0 mph /  22.5 km/h 22.0 mph /  35.4 km/h 77 % 0.00 in /  0 mm 63 W/m2
14:08 51.1 °F /  10.6 °C 44.1 °F /  6.7 °C 30.09 in /  1018.8 hPa SW 13.0 mph /  20.9 km/h 23.0 mph /  37 km/h 77 % 0.00 in /  0 mm 63 W/m2
14:13 50.9 °F /  10.5 °C 43.9 °F /  6.6 °C 30.08 in /  1018.5 hPa SW 11.0 mph /  17.7 km/h 16.0 mph /  25.7 km/h 77 % 0.00 in /  0 mm 56 W/m2
14:18 50.9 °F /  10.5 °C 43.9 °F /  6.6 °C 30.08 in /  1018.5 hPa SW 14.0 mph /  22.5 km/h 21.0 mph /  33.8 km/h 77 % 0.00 in /  0 mm 53 W/m2
14:23 50.9 °F /  10.5 °C 43.9 °F /  6.6 °C 30.08 in /  1018.5 hPa SW 11.0 mph /  17.7 km/h 16.0 mph /  25.7 km/h 77 % 0.00 in /  0 mm 49 W/m2
14:28 50.7 °F /  10.4 °C 43.8 °F /  6.6 °C 30.08 in /  1018.5 hPa SW 12.0 mph /  19.3 km/h 20.0 mph /  32.2 km/h 77 % 0.00 in /  0 mm 47 W/m2
14:33 50.7 °F /  10.4 °C 44.1 °F /  6.7 °C 30.07 in /  1018.2 hPa SW 14.0 mph /  22.5 km/h 22.0 mph /  35.4 km/h 78 % 0.00 in /  0 mm 44 W/m2
14:38 50.5 °F /  10.3 °C 43.9 °F /  6.6 °C 30.07 in /  1018.2 hPa SW 13.0 mph /  20.9 km/h 24.0 mph /  38.6 km/h 78 % 0.00 in /  0 mm 42 W/m2
14:43 50.5 °F /  10.3 °C 43.9 °F /  6.6 °C 30.07 in /  1018.2 hPa SW 10.0 mph /  16.1 km/h 15.0 mph /  24.1 km/h 78 % 0.00 in /  0 mm 46 W/m2
14:48 50.5 °F /  10.3 °C 43.9 °F /  6.6 °C 30.06 in /  1017.8 hPa SW 10.0 mph /  16.1 km/h 15.0 mph /  24.1 km/h 78 % 0.00 in /  0 mm 40 W/m2
14:53 50.7 °F /  10.4 °C 44.1 °F /  6.7 °C 30.06 in /  1017.8 hPa SSW 13.0 mph /  20.9 km/h 20.0 mph /  32.2 km/h 78 % 0.00 in /  0 mm 33 W/m2
14:58 50.7 °F /  10.4 °C 43.8 °F /  6.6 °C 30.06 in /  1017.8 hPa SW 14.0 mph /  22.5 km/h 27.0 mph /  43.5 km/h 77 % 0.00 in /  0 mm 30 W/m2
15:03 50.7 °F /  10.4 °C 43.8 °F /  6.6 °C 30.05 in /  1017.5 hPa SW 8.0 mph /  12.9 km/h 15.0 mph /  24.1 km/h 77 % 0.00 in /  0 mm 23 W/m2
15:08 50.7 °F /  10.4 °C 43.8 °F /  6.6 °C 30.05 in /  1017.5 hPa WSW 10.0 mph /  16.1 km/h 16.0 mph /  25.7 km/h 77 % 0.00 in /  0 mm 18 W/m2
15:14 50.7 °F /  10.4 °C 44.1 °F /  6.7 °C 30.05 in /  1017.5 hPa SW 16.0 mph /  25.7 km/h 24.0 mph /  38.6 km/h 78 % 0.00 in /  0 mm 14 W/m2
15:19 50.7 °F /  10.4 °C 43.8 °F /  6.6 °C 30.05 in /  1017.5 hPa WSW 11.0 mph /  17.7 km/h 18.0 mph /  29 km/h 77 % 0.00 in /  0 mm 11 W/m2
15:24 50.9 °F /  10.5 °C 43.9 °F /  6.6 °C 30.05 in /  1017.5 hPa SW 18.0 mph /  29 km/h 28.0 mph /  45.1 km/h 77 % 0.00 in /  0 mm 9 W/m2
15:29 51.1 °F /  10.6 °C 44.1 °F /  6.7 °C 30.05 in /  1017.5 hPa SW 12.0 mph /  19.3 km/h 16.0 mph /  25.7 km/h 77 % 0.00 in /  0 mm 7 W/m2
15:34 51.1 °F /  10.6 °C 44.1 °F /  6.7 °C 30.05 in /  1017.5 hPa SSW 12.0 mph /  19.3 km/h 20.0 mph /  32.2 km/h 77 % 0.00 in /  0 mm 5 W/m2
15:39 51.1 °F /  10.6 °C 44.1 °F /  6.7 °C 30.05 in /  1017.5 hPa SW 11.0 mph /  17.7 km/h 15.0 mph /  24.1 km/h 77 % 0.00 in /  0 mm 0 W/m2
15:44 50.9 °F /  10.5 °C 43.9 °F /  6.6 °C 30.04 in /  1017.2 hPa SW 9.0 mph /  14.5 km/h 16.0 mph /  25.7 km/h 77 % 0.00 in /  0 mm 0 W/m2
15:54 50.7 °F /  10.4 °C 43.8 °F /  6.6 °C 30.04 in /  1017.2 hPa SW 10.0 mph /  16.1 km/h 15.0 mph /  24.1 km/h 77 % 0.00 in /  0 mm 0 W/m2
15:59 50.7 °F /  10.4 °C 44.1 °F /  6.7 °C 30.04 in /  1017.2 hPa SW 10.0 mph /  16.1 km/h 16.0 mph /  25.7 km/h 78 % 0.00 in /  0 mm 0 W/m2
16:04 50.7 °F /  10.4 °C 44.1 °F /  6.7 °C 30.04 in /  1017.2 hPa SW 9.0 mph /  14.5 km/h 19.0 mph /  30.6 km/h 78 % 0.00 in /  0 mm 0 W/m2
16:09 50.5 °F /  10.3 °C 43.9 °F /  6.6 °C 30.04 in /  1017.2 hPa SSW 10.0 mph /  16.1 km/h 18.0 mph /  29 km/h 78 % 0.00 in /  0 mm 0 W/m2
16:13 50.5 °F /  10.3 °C 43.9 °F /  6.6 °C 30.04 in /  1017.2 hPa SSW 13.0 mph /  20.9 km/h 21.0 mph /  33.8 km/h 78 % 0.00 in /  0 mm 0 W/m2
16:18 50.5 °F /  10.3 °C 43.9 °F /  6.6 °C 30.04 in /  1017.2 hPa SW 11.0 mph /  17.7 km/h 21.0 mph /  33.8 km/h 78 % 0.00 in /  0 mm 0 W/m2
16:23 50.5 °F /  10.3 °C 43.9 °F /  6.6 °C 30.03 in /  1016.8 hPa SSW 13.0 mph /  20.9 km/h 21.0 mph /  33.8 km/h 78 % 0.00 in /  0 mm 0 W/m2
16:28 50.5 °F /  10.3 °C 44.3 °F /  6.8 °C 30.02 in /  1016.5 hPa SSW 10.0 mph /  16.1 km/h 18.0 mph /  29 km/h 79 % 0.00 in /  0 mm 0 W/m2
16:33 50.4 °F /  10.2 °C 44.1 °F /  6.7 °C 30.02 in /  1016.5 hPa SSW 9.0 mph /  14.5 km/h 18.0 mph /  29 km/h 79 % 0.00 in /  0 mm 0 W/m2
16:38 50.2 °F /  10.1 °C 43.9 °F /  6.6 °C 30.01 in /  1016.1 hPa SSW 9.0 mph /  14.5 km/h 15.0 mph /  24.1 km/h 79 % 0.00 in /  0 mm 0 W/m2
16:43 50.2 °F /  10.1 °C 44.2 °F /  6.8 °C 30.02 in /  1016.5 hPa SSW 13.0 mph /  20.9 km/h 21.0 mph /  33.8 km/h 80 % 0.00 in /  0 mm 0 W/m2
16:48 50.0 °F /  10 °C 44.1 °F /  6.7 °C 30.01 in /  1016.1 hPa SSW 10.0 mph /  16.1 km/h 20.0 mph /  32.2 km/h 80 % 0.00 in /  0 mm 0 W/m2
16:53 49.8 °F /  9.9 °C 43.9 °F /  6.6 °C 30.01 in /  1016.1 hPa SW 11.0 mph /  17.7 km/h 16.0 mph /  25.7 km/h 80 % 0.00 in /  0 mm 0 W/m2
16:58 49.8 °F /  9.9 °C 43.9 °F /  6.6 °C 30.01 in /  1016.1 hPa SW 8.0 mph /  12.9 km/h 16.0 mph /  25.7 km/h 80 % 0.00 in /  0 mm 0 W/m2
17:03 49.8 °F /  9.9 °C 44.2 °F /  6.8 °C 30.01 in /  1016.1 hPa SSW 8.0 mph /  12.9 km/h 15.0 mph /  24.1 km/h 81 % 0.00 in /  0 mm 0 W/m2
17:13 49.6 °F /  9.8 °C 44.0 °F /  6.7 °C 30.00 in /  1015.8 hPa SSW 10.0 mph /  16.1 km/h 14.0 mph /  22.5 km/h 81 % 0.00 in /  0 mm 0 W/m2
17:18 49.6 °F /  9.8 °C 44.0 °F /  6.7 °C 30.00 in /  1015.8 hPa SSW 9.0 mph /  14.5 km/h 18.0 mph /  29 km/h 81 % 0.00 in /  0 mm 0 W/m2
17:23 49.6 °F /  9.8 °C 44.0 °F /  6.7 °C 29.99 in /  1015.5 hPa SSW 9.0 mph /  14.5 km/h 15.0 mph /  24.1 km/h 81 % 0.00 in /  0 mm 0 W/m2
17:28 49.6 °F /  9.8 °C 44.0 °F /  6.7 °C 29.99 in /  1015.5 hPa South 7.0 mph /  11.3 km/h 14.0 mph /  22.5 km/h 81 % 0.00 in /  0 mm 0 W/m2
17:33 49.5 °F /  9.7 °C 44.2 °F /  6.8 °C 29.99 in /  1015.5 hPa SSW 8.0 mph /  12.9 km/h 15.0 mph /  24.1 km/h 82 % 0.00 in /  0 mm 0 W/m2
17:38 49.5 °F /  9.7 °C 44.2 °F /  6.8 °C 29.98 in /  1015.1 hPa SSW 9.0 mph /  14.5 km/h 18.0 mph /  29 km/h 82 % 0.00 in /  0 mm 0 W/m2
17:43 49.5 °F /  9.7 °C 44.2 °F /  6.8 °C 29.98 in /  1015.1 hPa SW 9.0 mph /  14.5 km/h 14.0 mph /  22.5 km/h 82 % 0.00 in /  0 mm 0 W/m2
17:48 49.5 °F /  9.7 °C 44.2 °F /  6.8 °C 29.98 in /  1015.1 hPa SW 12.0 mph /  19.3 km/h 20.0 mph /  32.2 km/h 82 % 0.00 in /  0 mm 0 W/m2
17:53 49.6 °F /  9.8 °C 44.4 °F /  6.9 °C 29.97 in /  1014.8 hPa SSW 8.0 mph /  12.9 km/h 12.0 mph /  19.3 km/h 82 % 0.00 in /  0 mm 0 W/m2
17:59 49.5 °F /  9.7 °C 44.2 °F /  6.8 °C 29.97 in /  1014.8 hPa SSW 8.0 mph /  12.9 km/h 16.0 mph /  25.7 km/h 82 % 0.00 in /  0 mm 0 W/m2
18:04 49.5 °F /  9.7 °C 44.2 °F /  6.8 °C 29.97 in /  1014.8 hPa SSW 10.0 mph /  16.1 km/h 18.0 mph /  29 km/h 82 % 0.00 in /  0 mm 0 W/m2
18:09 49.5 °F /  9.7 °C 44.2 °F /  6.8 °C 29.97 in /  1014.8 hPa SSW 9.0 mph /  14.5 km/h 12.0 mph /  19.3 km/h 82 % 0.00 in /  0 mm 0 W/m2
18:14 49.5 °F /  9.7 °C 44.2 °F /  6.8 °C 29.97 in /  1014.8 hPa SSW 10.0 mph /  16.1 km/h 16.0 mph /  25.7 km/h 82 % 0.00 in /  0 mm 0 W/m2
18:19 49.5 °F /  9.7 °C 44.2 °F /  6.8 °C 29.96 in /  1014.4 hPa SSW 6.0 mph /  9.7 km/h 12.0 mph /  19.3 km/h 82 % 0.00 in /  0 mm 0 W/m2
18:24 49.3 °F /  9.6 °C 44.3 °F /  6.8 °C 29.95 in /  1014.1 hPa SSW 13.0 mph /  20.9 km/h 25.0 mph /  40.2 km/h 83 % 0.00 in /  0 mm 0 W/m2
18:29 49.3 °F /  9.6 °C 44.3 °F /  6.8 °C 29.95 in /  1014.1 hPa SW 10.0 mph /  16.1 km/h 14.0 mph /  22.5 km/h 83 % 0.00 in /  0 mm 0 W/m2
18:34 49.5 °F /  9.7 °C 44.5 °F /  6.9 °C 29.95 in /  1014.1 hPa SSW 7.0 mph /  11.3 km/h 12.0 mph /  19.3 km/h 83 % 0.00 in /  0 mm 0 W/m2
18:39 49.5 °F /  9.7 °C 44.5 °F /  6.9 °C 29.95 in /  1014.1 hPa SSW 13.0 mph /  20.9 km/h 23.0 mph /  37 km/h 83 % 0.00 in /  0 mm 0 W/m2
18:44 49.5 °F /  9.7 °C 44.5 °F /  6.9 °C 29.94 in /  1013.8 hPa SSW 12.0 mph /  19.3 km/h 23.0 mph /  37 km/h 83 % 0.00 in /  0 mm 0 W/m2
18:49 49.6 °F /  9.8 °C 44.4 °F /  6.9 °C 29.93 in /  1013.4 hPa SSW 12.0 mph /  19.3 km/h 24.0 mph /  38.6 km/h 82 % 0.00 in /  0 mm 0 W/m2
18:54 49.6 °F /  9.8 °C 44.4 °F /  6.9 °C 29.93 in /  1013.4 hPa SW 13.0 mph /  20.9 km/h 23.0 mph /  37 km/h 82 % 0.00 in /  0 mm 0 W/m2
18:59 49.8 °F /  9.9 °C 44.5 °F /  6.9 °C 29.92 in /  1013.1 hPa SW 15.0 mph /  24.1 km/h 32.0 mph /  51.5 km/h 82 % 0.00 in /  0 mm 0 W/m2
19:04 49.8 °F /  9.9 °C 44.5 °F /  6.9 °C 29.92 in /  1013.1 hPa SW 16.0 mph /  25.7 km/h 27.0 mph /  43.5 km/h 82 % 0.00 in /  0 mm 0 W/m2
19:09 50.0 °F /  10 °C 44.7 °F /  7.1 °C 29.92 in /  1013.1 hPa SW 15.0 mph /  24.1 km/h 26.0 mph /  41.8 km/h 82 % 0.00 in /  0 mm 0 W/m2
19:14 49.8 °F /  9.9 °C 44.5 °F /  6.9 °C 29.91 in /  1012.8 hPa SW 11.0 mph /  17.7 km/h 19.0 mph /  30.6 km/h 82 % 0.00 in /  0 mm 0 W/m2
19:19 49.8 °F /  9.9 °C 44.5 °F /  6.9 °C 29.91 in /  1012.8 hPa SW 16.0 mph /  25.7 km/h 28.0 mph /  45.1 km/h 82 % 0.00 in /  0 mm 0 W/m2
19:24 49.8 °F /  9.9 °C 44.5 °F /  6.9 °C 29.91 in /  1012.8 hPa SW 18.0 mph /  29 km/h 35.0 mph /  56.3 km/h 82 % 0.00 in /  0 mm 0 W/m2
19:29 50.0 °F /  10 °C 44.7 °F /  7.1 °C 29.91 in /  1012.8 hPa SW 19.0 mph /  30.6 km/h 30.0 mph /  48.3 km/h 82 % 0.00 in /  0 mm 0 W/m2
19:34 50.0 °F /  10 °C 45.0 °F /  7.2 °C 29.91 in /  1012.8 hPa SW 21.0 mph /  33.8 km/h 32.0 mph /  51.5 km/h 83 % 0.00 in /  0 mm 0 W/m2
19:39 50.2 °F /  10.1 °C 44.9 °F /  7.2 °C 29.91 in /  1012.8 hPa SW 22.0 mph /  35.4 km/h 30.0 mph /  48.3 km/h 82 % 0.00 in /  0 mm 0 W/m2
19:44 50.2 °F /  10.1 °C 44.9 °F /  7.2 °C 29.90 in /  1012.4 hPa SW 21.0 mph /  33.8 km/h 31.0 mph /  49.9 km/h 82 % 0.00 in /  0 mm 0 W/m2
19:54 50.4 °F /  10.2 °C 45.1 °F /  7.3 °C 29.90 in /  1012.4 hPa SW 23.0 mph /  37 km/h 32.0 mph /  51.5 km/h 82 % 0.00 in /  0 mm 0 W/m2
19:59 50.4 °F /  10.2 °C 45.4 °F /  7.4 °C 29.89 in /  1012.1 hPa SW 25.0 mph /  40.2 km/h 38.0 mph /  61.2 km/h 83 % 0.00 in /  0 mm 0 W/m2
20:04 50.4 °F /  10.2 °C 45.4 °F /  7.4 °C 29.89 in /  1012.1 hPa SW 20.0 mph /  32.2 km/h 30.0 mph /  48.3 km/h 83 % 0.00 in /  0 mm 0 W/m2
20:09 50.4 °F /  10.2 °C 45.4 °F /  7.4 °C 29.89 in /  1012.1 hPa SW 21.0 mph /  33.8 km/h 30.0 mph /  48.3 km/h 83 % 0.00 in /  0 mm 0 W/m2
20:14 50.4 °F /  10.2 °C 45.4 °F /  7.4 °C 29.89 in /  1012.1 hPa SW 22.0 mph /  35.4 km/h 35.0 mph /  56.3 km/h 83 % 0.00 in /  0 mm 0 W/m2
20:19 50.4 °F /  10.2 °C 45.4 °F /  7.4 °C 29.89 in /  1012.1 hPa SW 26.0 mph /  41.8 km/h 37.0 mph /  59.5 km/h 83 % 0.00 in /  0 mm 0 W/m2
20:24 50.4 °F /  10.2 °C 45.4 °F /  7.4 °C 29.89 in /  1012.1 hPa SW 26.0 mph /  41.8 km/h 35.0 mph /  56.3 km/h 83 % 0.00 in /  0 mm 0 W/m2
20:29 50.5 °F /  10.3 °C 45.6 °F /  7.6 °C 29.89 in /  1012.1 hPa SW 24.0 mph /  38.6 km/h 33.0 mph /  53.1 km/h 83 % 0.00 in /  0 mm 0 W/m2
20:34 50.4 °F /  10.2 °C 45.4 °F /  7.4 °C 29.89 in /  1012.1 hPa SW 21.0 mph /  33.8 km/h 31.0 mph /  49.9 km/h 83 % 0.00 in /  0 mm 0 W/m2
20:39 50.4 °F /  10.2 °C 45.7 °F /  7.6 °C 29.89 in /  1012.1 hPa SW 22.0 mph /  35.4 km/h 33.0 mph /  53.1 km/h 84 % 0.00 in /  0 mm 0 W/m2
20:44 50.4 °F /  10.2 °C 45.7 °F /  7.6 °C 29.89 in /  1012.1 hPa SW 18.0 mph /  29 km/h 28.0 mph /  45.1 km/h 84 % 0.00 in /  0 mm 0 W/m2
20:49 50.4 °F /  10.2 °C 45.7 °F /  7.6 °C 29.88 in /  1011.7 hPa SW 21.0 mph /  33.8 km/h 29.0 mph /  46.7 km/h 84 % 0.00 in /  0 mm 0 W/m2
20:54 50.4 °F /  10.2 °C 45.7 °F /  7.6 °C 29.88 in /  1011.7 hPa SW 16.0 mph /  25.7 km/h 27.0 mph /  43.5 km/h 84 % 0.00 in /  0 mm 0 W/m2
21:00 50.4 °F /  10.2 °C 45.7 °F /  7.6 °C 29.88 in /  1011.7 hPa SW 19.0 mph /  30.6 km/h 28.0 mph /  45.1 km/h 84 % 0.00 in /  0 mm 0 W/m2
21:05 50.5 °F /  10.3 °C 45.9 °F /  7.7 °C 29.88 in /  1011.7 hPa SW 15.0 mph /  24.1 km/h 23.0 mph /  37 km/h 84 % 0.00 in /  0 mm 0 W/m2
21:10 50.5 °F /  10.3 °C 45.9 °F /  7.7 °C 29.88 in /  1011.7 hPa SW 16.0 mph /  25.7 km/h 29.0 mph /  46.7 km/h 84 % 0.00 in /  0 mm 0 W/m2
21:15 50.7 °F /  10.4 °C 45.7 °F /  7.6 °C 29.88 in /  1011.7 hPa SW 18.0 mph /  29 km/h 25.0 mph /  40.2 km/h 83 % 0.00 in /  0 mm 0 W/m2
21:20 50.7 °F /  10.4 °C 45.7 °F /  7.6 °C 29.87 in /  1011.4 hPa SW 17.0 mph /  27.4 km/h 28.0 mph /  45.1 km/h 83 % 0.00 in /  0 mm 0 W/m2
21:25 50.7 °F /  10.4 °C 45.7 °F /  7.6 °C 29.86 in /  1011.1 hPa SSW 15.0 mph /  24.1 km/h 23.0 mph /  37 km/h 83 % 0.00 in /  0 mm 0 W/m2
21:30 50.7 °F /  10.4 °C 45.7 °F /  7.6 °C 29.86 in /  1011.1 hPa SSW 17.0 mph /  27.4 km/h 27.0 mph /  43.5 km/h 83 % 0.00 in /  0 mm 0 W/m2
21:35 50.7 °F /  10.4 °C 45.7 °F /  7.6 °C 29.86 in /  1011.1 hPa SW 20.0 mph /  32.2 km/h 30.0 mph /  48.3 km/h 83 % 0.00 in /  0 mm 0 W/m2
21:40 50.9 °F /  10.5 °C 45.9 °F /  7.7 °C 29.86 in /  1011.1 hPa SW 16.0 mph /  25.7 km/h 27.0 mph /  43.5 km/h 83 % 0.00 in /  0 mm 0 W/m2
21:45 50.7 °F /  10.4 °C 46.1 °F /  7.8 °C 29.85 in /  1010.7 hPa SSW 14.0 mph /  22.5 km/h 26.0 mph /  41.8 km/h 84 % 0.00 in /  0 mm 0 W/m2
21:50 50.7 °F /  10.4 °C 46.1 °F /  7.8 °C 29.84 in /  1010.4 hPa SSW 18.0 mph /  29 km/h 27.0 mph /  43.5 km/h 84 % 0.00 in /  0 mm 0 W/m2
21:55 50.7 °F /  10.4 °C 46.1 °F /  7.8 °C 29.84 in /  1010.4 hPa SSW 17.0 mph /  27.4 km/h 28.0 mph /  45.1 km/h 84 % 0.00 in /  0 mm 0 W/m2
22:00 51.1 °F /  10.6 °C 46.4 °F /  8 °C 29.84 in /  1010.4 hPa SSW 15.0 mph /  24.1 km/h 23.0 mph /  37 km/h 84 % 0.00 in /  0 mm 0 W/m2
22:05 51.1 °F /  10.6 °C 46.4 °F /  8 °C 29.83 in /  1010 hPa SW 19.0 mph /  30.6 km/h 30.0 mph /  48.3 km/h 84 % 0.00 in /  0 mm 0 W/m2
22:10 51.1 °F /  10.6 °C 46.1 °F /  7.8 °C 29.83 in /  1010 hPa SSW 17.0 mph /  27.4 km/h 29.0 mph /  46.7 km/h 83 % 0.00 in /  0 mm 0 W/m2
22:15 51.1 °F /  10.6 °C 46.4 °F /  8 °C 29.83 in /  1010 hPa SW 21.0 mph /  33.8 km/h 30.0 mph /  48.3 km/h 84 % 0.00 in /  0 mm 0 W/m2
22:20 51.1 °F /  10.6 °C 46.1 °F /  7.8 °C 29.82 in /  1009.7 hPa SW 16.0 mph /  25.7 km/h 27.0 mph /  43.5 km/h 83 % 0.00 in /  0 mm 0 W/m2
22:25 51.1 °F /  10.6 °C 46.1 °F /  7.8 °C 29.82 in /  1009.7 hPa SW 21.0 mph /  33.8 km/h 36.0 mph /  57.9 km/h 83 % 0.00 in /  0 mm 0 W/m2
22:30 51.3 °F /  10.7 °C 46.3 °F /  7.9 °C 29.82 in /  1009.7 hPa SSW 17.0 mph /  27.4 km/h 26.0 mph /  41.8 km/h 83 % 0.00 in /  0 mm 0 W/m2
22:35 51.1 °F /  10.6 °C 46.1 °F /  7.8 °C 29.81 in /  1009.4 hPa SSW 20.0 mph /  32.2 km/h 33.0 mph /  53.1 km/h 83 % 0.00 in /  0 mm 0 W/m2
22:40 51.1 °F /  10.6 °C 46.4 °F /  8 °C 29.82 in /  1009.7 hPa SSW 20.0 mph /  32.2 km/h 30.0 mph /  48.3 km/h 84 % 0.00 in /  0 mm 0 W/m2
22:45 51.1 °F /  10.6 °C 46.4 °F /  8 °C 29.80 in /  1009 hPa SSW 20.0 mph /  32.2 km/h 28.0 mph /  45.1 km/h 84 % 0.00 in /  0 mm 0 W/m2
22:50 51.1 °F /  10.6 °C 46.4 °F /  8 °C 29.80 in /  1009 hPa SW 19.0 mph /  30.6 km/h 28.0 mph /  45.1 km/h 84 % 0.00 in /  0 mm 0 W/m2
22:55 51.1 °F /  10.6 °C 46.4 °F /  8 °C 29.80 in /  1009 hPa SW 22.0 mph /  35.4 km/h 33.0 mph /  53.1 km/h 84 % 0.00 in /  0 mm 0 W/m2
23:00 51.1 °F /  10.6 °C 46.7 °F /  8.2 °C 29.80 in /  1009 hPa SSW 20.0 mph /  32.2 km/h 33.0 mph /  53.1 km/h 85 % 0.00 in /  0 mm 0 W/m2
23:05 51.1 °F /  10.6 °C 46.4 °F /  8 °C 29.80 in /  1009 hPa SW 17.0 mph /  27.4 km/h 23.0 mph /  37 km/h 84 % 0.00 in /  0 mm 0 W/m2
23:10 51.3 °F /  10.7 °C 46.9 °F /  8.3 °C 29.80 in /  1009 hPa SW 20.0 mph /  32.2 km/h 30.0 mph /  48.3 km/h 85 % 0.00 in /  0 mm 0 W/m2
23:15 51.4 °F /  10.8 °C 47.1 °F /  8.4 °C 29.79 in /  1008.7 hPa SSW 20.0 mph /  32.2 km/h 30.0 mph /  48.3 km/h 85 % 0.00 in /  0 mm 0 W/m2
23:20 51.4 °F /  10.8 °C 46.8 °F /  8.2 °C 29.79 in /  1008.7 hPa SSW 18.0 mph /  29 km/h 28.0 mph /  45.1 km/h 84 % 0.00 in /  0 mm 0 W/m2
23:25 51.4 °F /  10.8 °C 46.8 °F /  8.2 °C 29.78 in /  1008.4 hPa SSW 19.0 mph /  30.6 km/h 34.0 mph /  54.7 km/h 84 % 0.00 in /  0 mm 0 W/m2
23:30 51.6 °F /  10.9 °C 46.9 °F /  8.3 °C 29.78 in /  1008.4 hPa SW 17.0 mph /  27.4 km/h 25.0 mph /  40.2 km/h 84 % 0.00 in /  0 mm 0 W/m2
23:35 51.6 °F /  10.9 °C 46.9 °F /  8.3 °C 29.78 in /  1008.4 hPa SW 17.0 mph /  27.4 km/h 25.0 mph /  40.2 km/h 84 % 0.00 in /  0 mm 0 W/m2
23:40 51.6 °F /  10.9 °C 46.9 °F /  8.3 °C 29.78 in /  1008.4 hPa SW 16.0 mph /  25.7 km/h 26.0 mph /  41.8 km/h 84 % 0.00 in /  0 mm 0 W/m2
23:45 51.8 °F /  11 °C 47.1 °F /  8.4 °C 29.77 in /  1008 hPa SSW 16.0 mph /  25.7 km/h 23.0 mph /  37 km/h 84 % 0.00 in /  0 mm 0 W/m2
23:50 52.0 °F /  11.1 °C 47.3 °F /  8.5 °C 29.77 in /  1008 hPa SSW 18.0 mph /  29 km/h 30.0 mph /  48.3 km/h 84 % 0.00 in /  0 mm 0 W/m2
23:55 52.0 °F /  11.1 °C 47.3 °F /  8.5 °C 29.77 in /  1008 hPa SSW 18.0 mph /  29 km/h 26.0 mph /  41.8 km/h 84 % 0.00 in /  0 mm 0 W/m2
Delerius-Weather
Compliments of Weather Underground - 2.25 mb

Data updates at regular intervals.